Language selection

Weather shortcuts

Atlantic - Newfoundland: Past 24 Hour Conditions

 

East Chedabucto Bay - 44488

09:00 AM ADT 22 May 2024Buoy position: 45.45N 60.95W
Disclaimer

This table is a summary of hourly weather conditions for the past 24 hours.
Please note that these observations might not always be representative of weather conditions over their associated marine area.

Date / Time
(ADT)
Wind(knots) Wave height(m) Wave period(s) Pressure(kPa) Air tempC) Water tempC)
22 May 2024
9:00 W 11 gusts 13 0.45 4.7 101.0 10 7
8:00 W 10 gusts 11 0.40 6.0 101.0 9 6
7:00 SW 6 gusts 9 0.42 5.3 101.1 8 6
6:00 WSW 9 gusts 10 0.39 5.6 101.1 8 6
5:00 SSW 10 gusts 12 0.42 5.8 101.0 7 6
4:00 SW 12 gusts 14 0.49 5.6 101.1 7 6
3:00 WSW 13 gusts 15 0.62 3.9 101.1 7 6
2:00 WSW 9 gusts 16 0.59 4.7 101.2 7 6
1:00 WSW 12 gusts 15 0.57 4.6 101.2 7 6
0:00 WSW 12 gusts 16 0.61 4.2 101.2 8 6
21 May 2024
23:00 W 13 gusts 16 0.61 4.5 101.2 8 6
22:00 W 12 gusts 14 0.74 4.6 101.2 8 6
21:00 N/A N/A N/A N/A N/A N/A
20:00 W 9 gusts 12 0.83 4.4 101.2 8 6
19:00 WSW 11 gusts 13 0.95 4.1 101.1 9 6
18:00 W 15 gusts 18 0.99 4.4 101.2 9 6
17:00 WSW 16 gusts 24 0.90 4.5 101.1 10 7
16:00 SW 17 gusts 19 1.00 4.2 101.2 9 7
15:00 SW 23 gusts 26 0.91 4.8 101.1 10 7
14:00 SW 11 gusts 14 0.78 6.0 101.3 10 7
13:00 S 5 gusts 8 0.71 6.1 101.5 8 7
12:00 S 9 gusts 12 0.72 6.4 101.5 8 7
11:00 SW 3 gusts 3 0.77 6.5 101.5 9 7
10:00 SW 4 gusts 5 0.80 6.9 101.5 8 7
9:00 S 4 gusts 5 0.81 6.8 101.5 7 7

Zoom-in to make a selection

Map of Atlantic - Newfoundland marine weather areas Banquereau - 44139 East Chedabucto Bay – 44488 West Chedabucto Bay – 44489 Blanc-Sablon Airport Cap Whittle Chevery Natashquan Airport Heath Point Îles de la Madeleine Airport Miscou Island Eskasoni (First Nations) Grand Étang Ingonish Beach North Mountain St.Paul Island J.A. Douglas McCurdy Sydney Airport Charlottetown Airport East Point North Cape Argentia Berry Hill Bonavista Burgeo Cape Race Corner Brook Daniel's Harbour Englee Ferolle Point La Scie Port aux Basques Sagona Island St. Anthony Airport St. John's Int'l Airport St. Lawrence Stephenville Airport Twillingate Winterland Branch Hill Wreckhouse Grates Cove Pool's Island Marticot Island Long Pond Cartwright Airport Mary's Harbour
Legend:
buoy Buoy
land station Land Station

Atlantic - Newfoundland Area

Another Region

Date modified: